Data for 05/23/2005

Time Sea-Level Adjusted Pressure Absolute Pressure Temperature Relative Humidity Dew Point   
(mb) (inHg) (mb) (inHg) (C) (F) (%) (C) (F)
00:05 1018 30.06 847 25.01 9.6 49.3 75 5.4 41.8
00:10 1018 30.06 847 25.01 9.6 49.2 76 5.5 41.9
00:15 1018 30.06 847 25.01 9.5 49.1 75 5.2 41.4
00:20 1018 30.06 847 25.01 9.5 49.1 73 5 41
00:25 1018 30.06 847 25.01 9.4 48.9 74 5.1 41.1
00:30 1018 30.06 847 25.01 9.3 48.7 77 5.5 41.8
00:35 1018 30.06 847 25.01 9.2 48.5 77 5.4 41.7
00:40 1018 30.06 847 25.01 9.1 48.3 80 5.7 42.3
00:45 1018 30.06 848 25.04 8.9 48.1 81 5.9 42.5
00:50 1019 30.09 848 25.04 8.8 47.8 81 5.8 42.4
00:55 1019 30.09 848 25.04 8.7 47.6 83 5.9 42.7
01:00 1019 30.09 849 25.07 8.4 47.2 86 6.2 43.2
01:05 1019 30.09 848 25.04 8 46.5 90 6.4 43.6
01:10 1019 30.09 848 25.04 7.8 46.1 91 6.4 43.5
01:15 1019 30.09 848 25.04 7.6 45.7 92 6.3 43.4
01:20 1019 30.09 848 25.04 7.6 45.7 92 6.4 43.6
01:25 1019 30.09 848 25.04 7.6 45.7 93 6.6 43.9
01:30 1019 30.09 848 25.04 7.7 45.8 92 6.5 43.7
01:35 1019 30.09 848 25.04 7.7 45.8 92 6.4 43.6
01:40 1019 30.09 848 25.04 7.6 45.7 91 6.3 43.4
01:45 1019 30.09 848 25.04 7.7 45.8 91 6.4 43.4
01:50 1019 30.09 848 25.04 7.5 45.5 93 6.5 43.7
01:55 1019 30.09 848 25.04 7.4 45.4 93 6.4 43.6
02:00 1019 30.09 848 25.04 7.3 45.2 93 6.3 43.3
02:05 1019 30.09 848 25.04 7.2 44.9 94 6.3 43.4
02:10 1019 30.09 848 25.04 7.3 45.1 93 6.3 43.3
02:15 1019 30.09 848 25.04 7.2 44.9 94 6.3 43.3
02:20 1019 30.09 849 25.07 7 44.6 95 6.2 43.1
02:25 1019 30.09 849 25.07 6.9 44.5 95 6.1 43
02:30 1019 30.09 849 25.07 7.1 44.7 94 6.2 43.1
02:35 1020 30.12 849 25.07 7.1 44.7 93 6 42.8
02:40 1020 30.12 849 25.07 7.1 44.7 92 5.9 42.6
02:45 1020 30.12 849 25.07 6.9 44.5 91 5.6 42
02:50 1020 30.12 849 25.07 7 44.6 91 5.7 42.2
02:55 1020 30.12 849 25.07 7 44.6 93 5.9 42.6
03:00 1020 30.12 849 25.07 6.9 44.5 93 5.9 42.5
03:05 1019 30.09 849 25.07 6.8 44.3 91 5.5 41.8
03:10 1020 30.12 849 25.07 6.5 43.8 93 5.6 42
03:15 1020 30.12 849 25.07 6.7 44 92 5.4 41.7
03:20 1020 30.12 849 25.07 6.6 43.9 91 5.3 41.5
03:25 1020 30.12 849 25.07 6.5 43.8 92 5.3 41.5
03:30 1020 30.12 849 25.07 6.5 43.6 92 5.3 41.5
03:35 1020 30.12 849 25.07 6.5 43.7 93 5.5 41.8
03:40 1020 30.12 849 25.07 6.5 43.7 93 5.5 41.9
03:45 1020 30.12 849 25.07 6.5 43.7 92 5.2 41.4
03:50 1020 30.12 849 25.07 6.5 43.7 92 5.2 41.4
03:55 1020 30.12 849 25.07 6.5 43.7 90 5 41
04:00 1020 30.12 849 25.07 6.7 44 87 4.6 40.3
04:05 1020 30.12 849 25.07 6.8 44.2 86 4.5 40.2
04:10 1020 30.12 849 25.07 6.9 44.3 85 4.5 40.1
04:15 1020 30.12 849 25.07 7 44.7 81 4.1 39.4
04:20 1020 30.12 849 25.07 7.2 45 82 4.3 39.7
04:25 1020 30.12 849 25.07 7.3 45.1 83 4.6 40.3
04:30 1020 30.12 849 25.07 7.2 44.9 83 4.5 40.2
04:35 1020 30.12 849 25.07 7.1 44.8 86 5 40.9
04:40 1020 30.12 849 25.07 7 44.6 87 5 40.9
04:45 1020 30.12 849 25.07 6.9 44.5 87 4.9 40.8
04:50 1020 30.12 849 25.07 6.9 44.4 86 4.7 40.4
04:55 1020 30.12 849 25.07 6.9 44.4 87 4.9 40.9
05:00 1020 30.12 849 25.07 6.8 44.3 88 5.1 41.1
05:05 1020 30.12 849 25.07 6.8 44.2 88 5 41
05:10 1020 30.12 849 25.07 6.7 44 76 2.7 36.9
05:15 1020 30.12 849 25.07 6.3 43.3 71 1.4 34.5
05:20 1020 30.12 849 25.07 6.1 42.9 70 1 33.8
05:25 1020 30.12 849 25.07 5.9 42.5 69 0.7 33.2
05:30 1020 30.12 849 25.07 5.7 42.2 71 0.8 33.4
05:35 1020 30.12 849 25.07 5.6 42 72 0.8 33.5
05:40 1020 30.12 849 25.07 5.5 42 69 0.4 32.7
05:45 1020 30.12 849 25.07 5.5 41.9 70 0.4 32.8
05:50 1020 30.12 849 25.07 5.5 41.9 70 0.5 32.9
05:55 1020 30.12 849 25.07 5.4 41.7 70 0.4 32.8
06:00 1020 30.12 850 25.1 5.4 41.6 71 0.6 33
06:05 1020 30.12 850 25.1 5.3 41.6 72 0.7 33.2
06:10 1020 30.12 850 25.1 5.4 41.7 72 0.7 33.2
06:15 1021 30.15 850 25.1 5.4 41.7 71 0.6 33.2
06:20 1021 30.15 850 25.1 5.5 41.9 71 0.6 33.1
06:25 1021 30.15 850 25.1 5.6 42 71 0.7 33.2
06:30 1021 30.15 850 25.1 5.6 42.2 69 0.4 32.7
06:35 1021 30.15 850 25.1 5.7 42.3 68 0.3 32.5
06:40 1021 30.15 850 25.1 5.8 42.5 73 1.4 34.6
06:45 1021 30.15 850 25.1 5.9 42.6 77 2.2 35.9
06:50 1021 30.15 850 25.1 5.5 41.9 77 1.7 35.1
06:55 1021 30.15 850 25.1 5.3 41.6 75 1.2 34.1
07:00 1021 30.15 850 25.1 5.6 42 70 0.6 33.1
07:05 1021 30.15 850 25.1 5.9 42.6 68 0.4 32.7
07:10 1021 30.15 850 25.1 5.9 42.7 66 0 32
07:15 1021 30.15 850 25.1 6.2 43.1 61 -0.7 30.7
07:20 1021 30.15 850 25.1 6.6 44 62 -0 31.9
07:25 1021 30.15 850 25.1 6.8 44.3 59 -0.5 31
07:30 1021 30.15 850 25.1 6.5 43.8 59 -0.8 30.5
07:35 1021 30.15 850 25.1 6.9 44.4 55 -1.4 29.4
07:40 1021 30.15 850 25.1 7 44.6 55 -1.4 29.4
07:45 1021 30.15 850 25.1 7 44.6 56 -1.3 29.7
07:50 1021 30.15 850 25.1 7.2 45 54 -1.5 29.4
07:55 1021 30.15 850 25.1 7.4 45.2 51 -2.1 28.2
08:00 1021 30.15 850 25.1 7.7 45.9 53 -1.3 29.6
08:05 1021 30.15 850 25.1 8.2 46.8 50 -1.5 29.3
08:10 1021 30.15 850 25.1 7.8 46.1 55 -0.6 31
08:15 1021 30.15 850 25.1 7.4 45.2 58 -0.4 31.4
08:20 1021 30.15 850 25.1 8 46.5 53 -0.9 30.3
08:25 1021 30.15 850 25.1 7.6 45.8 56 -0.6 30.9
08:30 1021 30.15 850 25.1 7.6 45.7 54 -1.1 30.1
08:35 1021 30.15 850 25.1 7.9 46.1 51 -1.7 28.9
08:40 1021 30.15 850 25.1 8 46.3 48 -2.5 27.5
08:45 1021 30.15 850 25.1 8.2 46.7 50 -1.6 29.1
08:50 1021 30.15 850 25.1 8.6 47.4 47 -2.2 28
08:55 1021 30.15 850 25.1 9.2 48.5 45 -2.1 28.2
09:00 1021 30.15 850 25.1 9.3 48.7 43 -2.5 27.5
09:05 1021 30.15 850 25.1 9.7 49.4 40 -3.1 26.5
09:10 1021 30.15 850 25.1 9.7 49.4 44 -1.8 28.7
09:15 1021 30.15 850 25.1 9.3 48.8 46 -1.5 29.3
09:20 1021 30.15 850 25.1 9 48.2 48 -1.5 29.3
09:25 1021 30.15 850 25.1 8.7 47.7 46 -2.1 28.2
09:30 1021 30.15 850 25.1 9.3 48.7 41 -3.1 26.3
09:35 1021 30.15 850 25.1 10.2 50.3 41 -2.6 27.4
09:40 1021 30.15 850 25.1 10.1 50.2 36 -4.2 24.4
09:45 1021 30.15 850 25.1 9.9 49.8 36 -4.4 24.1
09:50 1021 30.15 850 25.1 9.9 49.9 37 -4.1 24.6
09:55 1021 30.15 850 25.1 10.3 50.5 36 -4.3 24.3
10:00 1021 30.15 850 25.1 10.8 51.4 37 -3.4 25.9
10:05 1021 30.15 850 25.1 11.1 51.9 36 -3.5 25.7
10:10 1021 30.15 850 25.1 11.1 52 35 -3.6 25.5
10:15 1021 30.15 850 25.1 11.3 52.4 35 -3.7 25.3
10:20 1021 30.15 850 25.1 11.7 53.1 35 -3.3 26.1
10:25 1021 30.15 850 25.1 12 53.6 34 -3.2 26.3
10:30 1021 30.15 850 25.1 10.9 51.5 35 -3.9 25
10:35 1021 30.15 850 25.1 10.5 50.8 36 -3.9 25
10:40 1021 30.15 850 25.1 10.9 51.6 34 -4.2 24.5
10:45 1021 30.15 850 25.1 10.7 51.3 38 -3.1 26.4
10:50 1020 30.12 850 25.1 10.5 50.8 37 -3.5 25.7
10:55 1020 30.12 850 25.1 9.7 49.4 39 -3.5 25.7
11:00 1020 30.12 850 25.1 10.6 51.1 38 -3.1 26.5
11:05 1020 30.12 850 25.1 11.2 52.1 35 -3.6 25.5
11:10 1020 30.12 850 25.1 11.3 52.4 38 -2.6 27.4
11:15 1020 30.12 850 25.1 10.9 51.6 39 -2.5 27.6
11:20 1020 30.12 850 25.1 11 51.8 38 -2.6 27.3
11:25 1020 30.12 849 25.07 11.3 52.4 39 -2.1 28.2
11:30 1020 30.12 849 25.07 11 51.7 41 -1.8 28.7
11:35 1020 30.12 849 25.07 11.4 52.5 36 -3.2 26.3
11:40 1020 30.12 849 25.07 11.9 53.4 35 -2.9 26.8
11:45 1020 30.12 849 25.07 10.9 51.5 37 -3.1 26.4
11:50 1020 30.12 849 25.07 11.6 52.8 36 -3 26.5
11:55 1020 30.12 849 25.07 12.2 54 35 -2.8 27
12:00 1020 30.12 849 25.07 12.4 54.3 33 -3.3 26.1
12:05 1020 30.12 849 25.07 12.3 54.2 33 -3.6 25.5
12:10 1020 30.12 849 25.07 11.9 53.4 33 -4 24.8
12:15 1020 30.12 849 25.07 11 51.8 35 -3.7 25.4
12:20 1020 30.12 849 25.07 11.4 52.4 35 -3.5 25.7
12:25 1020 30.12 849 25.07 12.3 54.1 32 -4 24.8
12:30 1020 30.12 849 25.07 11.7 53 34 -3.6 25.6
12:35 1020 30.12 849 25.07 12.2 54 33 -3.4 25.8
12:40 1019 30.09 849 25.07 12.4 54.2 34 -2.9 26.7
12:45 1019 30.09 849 25.07 12.2 54 36 -2.4 27.6
12:50 1019 30.09 849 25.07 12.1 53.8 35 -2.7 27.1
12:55 1019 30.09 849 25.07 11.9 53.4 34 -3.2 26.2
13:00 1019 30.09 849 25.07 11.3 52.3 35 -3.5 25.7
13:05 1019 30.09 848 25.04 11.7 53 35 -3.2 26.2
13:10 1019 30.09 848 25.04 12.6 54.7 34 -2.8 27
13:15 1019 30.09 848 25.04 13.2 55.7 32 -3 26.6
13:20 1019 30.09 848 25.04 13.2 55.7 33 -2.8 27
13:25 1019 30.09 848 25.04 13.5 56.2 34 -2.1 28.1
13:30 1019 30.09 848 25.04 13.8 56.9 33 -2 28.4
13:35 1019 30.09 848 25.04 13.8 56.8 32 -2.5 27.5
13:40 1019 30.09 848 25.04 13.7 56.7 34 -1.8 28.7
13:45 1019 30.09 848 25.04 12.3 54.1 37 -2 28.5
13:50 1019 30.09 848 25.04 13.1 55.6 33 -2.7 27.1
13:55 1019 30.09 848 25.04 13.2 55.7 35 -2.1 28.3
14:00 1019 30.09 848 25.04 13 55.4 36 -1.8 28.8
14:05 1019 30.09 848 25.04 12.3 54.1 37 -2 28.3
14:10 1019 30.09 848 25.04 13.5 56.3 33 -2.5 27.5
14:15 1018 30.06 848 25.04 14.3 57.7 32 -2.2 28
14:20 1018 30.06 848 25.04 14.2 57.6 32 -2.1 28.3
14:25 1018 30.06 848 25.04 13.7 56.7 34 -1.6 29
14:30 1018 30.06 848 25.04 12.9 55.1 36 -1.7 29
14:35 1018 30.06 847 25.01 13.6 56.5 33 -2.2 28
14:40 1018 30.06 847 25.01 14.2 57.6 32 -2.1 28.2
14:45 1018 30.06 847 25.01 14.8 58.6 31 -2 28.3
14:50 1018 30.06 847 25.01 15.4 59.6 32 -1 30.3
14:55 1018 30.06 847 25.01 15.1 59.3 31 -1.6 29
15:00 1018 30.06 847 25.01 13.5 56.3 32 -2.6 27.2
15:05 1018 30.06 847 25.01 13.5 56.3 33 -2.5 27.6
15:10 1018 30.06 847 25.01 14.8 58.6 33 -1.2 29.9
15:15 1018 30.06 847 25.01 15.6 60.1 29 -2.1 28.3
15:20 1018 30.06 847 25.01 15.6 60 29 -2.5 27.5
15:25 1018 30.06 847 25.01 14.8 58.6 28 -3.4 25.8
15:30 1018 30.06 847 25.01 15.1 59.1 30 -2.5 27.5
15:35 1018 30.06 847 25.01 15.3 59.5 27 -3.6 25.5
15:40 1018 30.06 847 25.01 15.1 59.1 28 -3.1 26.4
15:45 1018 30.06 847 25.01 15.7 60.3 27 -2.9 26.8
15:50 1018 30.06 847 25.01 16.2 61.1 25 -3.8 25.2
15:55 1018 30.06 847 25.01 16.1 60.9 28 -2.5 27.4
16:00 1017 30.03 847 25.01 16.1 61 26 -3.1 26.5
16:05 1017 30.03 847 25.01 15.3 59.5 28 -2.8 26.9
16:10 1017 30.03 847 25.01 15.7 60.3 27 -3.1 26.5
16:15 1017 30.03 846 24.98 15.9 60.5 26 -3.6 25.5
16:20 1017 30.03 846 24.98 16.4 61.5 26 -3.1 26.4
16:25 1017 30.03 846 24.98 15.7 60.2 27 -3.1 26.5
16:30 1017 30.03 846 24.98 16.1 60.9 26 -3.4 25.9
16:35 1017 30.03 846 24.98 15.7 60.3 27 -3.3 26
16:40 1017 30.03 846 24.98 16.2 61.2 26 -3.3 26.1
16:45 1017 30.03 846 24.98 15.8 60.5 25 -4 24.9
16:50 1017 30.03 846 24.98 15.8 60.4 27 -3 26.7
16:55 1017 30.03 846 24.98 16.3 61.3 25 -3.6 25.6
17:00 1017 30.03 846 24.98 16.6 61.9 25 -3.3 26
17:05 1017 30.03 846 24.98 16.8 62.3 25 -3.5 25.7
17:10 1017 30.03 846 24.98 16.7 62 25 -3.1 26.3
17:15 1017 30.03 846 24.98 16.2 61.1 26 -3.2 26.2
17:20 1017 30.03 846 24.98 15.7 60.2 27 -3.2 26.3
17:25 1017 30.03 846 24.98 15.6 60.2 25 -4 24.8
17:30 1017 30.03 846 24.98 15.6 60.1 26 -3.6 25.5
17:35 1017 30.03 846 24.98 15.7 60.3 25 -4 24.9
17:40 1017 30.03 846 24.98 15.9 60.5 26 -3.8 25.2
17:45 1017 30.03 846 24.98 17 62.5 24 -3.7 25.4
17:50 1017 30.03 846 24.98 17.3 63.2 22 -4.4 24.1
17:55 1017 30.03 846 24.98 17.2 63 24 -3.7 25.4
18:00 1017 30.03 846 24.98 17.3 63.1 23 -3.7 25.4
18:05 1017 30.03 846 24.98 16.6 61.9 25 -3.1 26.4
18:10 1017 30.03 846 24.98 16.1 60.9 26 -3.3 26
18:15 1017 30.03 846 24.98 16.3 61.3 25 -3.6 25.5
18:20 1017 30.03 846 24.98 16.8 62.2 24 -3.6 25.5
18:25 1017 30.03 846 24.98 17.1 62.8 23 -4.3 24.2
18:30 1017 30.03 846 24.98 17.3 63.1 22 -4.3 24.3
18:35 1017 30.03 846 24.98 17.1 62.7 22 -4.7 23.6
18:40 1017 30.03 846 24.98 16.6 61.8 25 -3.6 25.5
18:45 1017 30.03 846 24.98 16.2 61.2 24 -4.5 24
18:50 1017 30.03 846 24.98 16.7 62 22 -4.9 23.2
18:55 1017 30.03 846 24.98 17.1 62.7 22 -4.8 23.4
19:00 1017 30.03 846 24.98 17 62.7 22 -4.5 24
19:05 1017 30.03 846 24.98 17 62.6 24 -3.4 25.8
19:10 1017 30.03 846 24.98 15.8 60.5 26 -3.8 25.2
19:15 1017 30.03 846 24.98 15.7 60.2 27 -3.2 26.3
19:20 1017 30.03 846 24.98 15.3 59.6 27 -3.4 26
19:25 1017 30.03 846 24.98 15.6 60.1 26 -3.7 25.3
19:30 1017 30.03 846 24.98 15.4 59.8 26 -4.1 24.6
19:35 1017 30.03 846 24.98 15.5 59.9 25 -4.2 24.4
19:40 1017 30.03 846 24.98 15.9 60.5 26 -3.8 25.2
19:45 1017 30.03 846 24.98 15.9 60.6 29 -2.1 28.2
19:50 1017 30.03 846 24.98 15.6 60 27 -3 26.5
19:55 1017 30.03 846 24.98 15.5 59.9 26 -3.6 25.5
20:00 1017 30.03 846 24.98 15.3 59.5 27 -3.4 25.8
20:05 1017 30.03 846 24.98 14.7 58.4 29 -2.9 26.7
20:10 1017 30.03 846 24.98 14.6 58.2 29 -3.2 26.2
20:15 1017 30.03 846 24.98 14.5 58.1 30 -2.8 27
20:20 1017 30.03 846 24.98 14.6 58.3 28 -3.5 25.6
20:25 1017 30.03 846 24.98 14.4 57.9 30 -2.9 26.8
20:30 1017 30.03 846 24.98 14.4 57.9 31 -2.4 27.7
20:35 1017 30.03 846 24.98 14.4 57.9 32 -2 28.4
20:40 1017 30.03 846 24.98 14.2 57.6 34 -1.5 29.3
20:45 1017 30.03 846 24.98 13.7 56.7 34 -1.8 28.8
20:50 1017 30.03 846 24.98 13.1 55.5 35 -1.8 28.8
20:55 1017 30.03 847 25.01 12.9 55.2 35 -2 28.5
21:00 1017 30.03 847 25.01 12.8 55 36 -1.7 28.9
21:05 1017 30.03 847 25.01 12.7 54.8 37 -1.5 29.4
21:10 1017 30.03 847 25.01 12.5 54.5 38 -1.4 29.4
21:15 1017 30.03 847 25.01 12.3 54.1 38 -1.6 29.1
21:20 1018 30.06 847 25.01 12.1 53.8 38 -1.6 29.2
21:25 1018 30.06 847 25.01 12 53.6 38 -1.7 28.9
21:30 1018 30.06 847 25.01 11.8 53.3 39 -1.7 29
21:35 1018 30.06 847 25.01 11.7 53 39 -1.9 28.6
21:40 1018 30.06 847 25.01 11.7 53 38 -2.3 27.9
21:45 1018 30.06 847 25.01 11.6 52.8 38 -2.4 27.7
21:50 1018 30.06 847 25.01 11.5 52.6 38 -2.5 27.6
21:55 1018 30.06 847 25.01 11.5 52.7 37 -2.6 27.3
22:00 1018 30.06 847 25.01 11.5 52.7 38 -2.4 27.7
22:05 1018 30.06 847 25.01 11.4 52.5 38 -2.5 27.5
22:10 1018 30.06 848 25.04 11.4 52.5 37 -2.8 26.9
22:15 1019 30.09 848 25.04 11.5 52.6 36 -3.1 26.5
22:20 1019 30.09 848 25.04 11.4 52.5 38 -2.4 27.7
22:25 1019 30.09 848 25.04 11.5 52.6 43 -0.7 30.7
22:30 1019 30.09 848 25.04 11.2 52.1 42 -1.1 30.1
22:35 1019 30.09 848 25.04 10.9 51.7 42 -1.4 29.4
22:40 1019 30.09 848 25.04 10.8 51.5 38 -2.7 27.1
22:45 1019 30.09 848 25.04 11.1 51.9 38 -2.8 26.9
22:50 1019 30.09 848 25.04 11.2 52.2 37 -2.8 27
22:55 1019 30.09 848 25.04 11 51.8 42 -1.3 29.7
23:00 1019 30.09 848 25.04 10.4 50.6 42 -2 28.4
23:05 1019 30.09 848 25.04 10.5 50.9 41 -2.1 28.2
23:10 1019 30.09 848 25.04 10.9 51.7 41 -1.6 29.1
23:15 1019 30.09 848 25.04 10.9 51.5 42 -1.4 29.4
23:20 1019 30.09 848 25.04 10.6 51.1 40 -2.3 27.9
23:25 1019 30.09 848 25.04 10.5 50.9 42 -1.9 28.6
23:30 1019 30.09 848 25.04 10.5 50.9 44 -1.2 29.8
23:35 1019 30.09 848 25.04 10.1 50.2 46 -1 30.3
23:40 1019 30.09 848 25.04 9.9 49.9 48 -0.5 31.2
23:45 1019 30.09 848 25.04 9.7 49.5 50 -0.2 31.7
23:50 1019 30.09 848 25.04 9.4 48.9 48 -1.2 29.9
23:55 1019 30.09 848 25.04 9.7 49.5 47 -1.1 30
24:00 1019 30.09 848 25.04 9.6 49.3 49 -0.7 30.8